Terminal Aerodrome Forecast
Issued by NWS Twin Cities, MN

Home | Current Version | Previous Version | Text Only | Print | Product List | Glossary Off
Versions: 1 2 3 4 5 6 7 8 9 10 11 12 13 14 15 16 17 18

291
FTUS43 KMPX 061135
TAFSTC
TAF
KSTC 061135Z 0612/0712 22005KT P6SM OVC008
     FM061500 19010KT P6SM BKN100
     FM061900 21011KT P6SM OVC070
     FM070200 23012KT P6SM OVC050 WS020/28040KT
     FM071000 26014G22KT P6SM OVC040=

USA.gov is the U.S. government's official web portal to all federal, state and local government web resources and services.